ADDS METAR Data INFO
IDs: Format: Raw Decoded Include TAF

Data at: 1505 UTC 11 Dec 2017

KFOZ 111445Z AUTO 34006KT 10SM OVC011 M04/M06 A2977 RMK AO2
KFOZ 111345Z AUTO 00000KT 10SM OVC013 M05/M06 A2972 RMK AO2 P0002
KFOZ 111245Z AUTO 00000KT 1 1/4SM SN OVC002 M05/M06 A2969 RMK AO2 P0002
KFOZ 111145Z AUTO 17003KT 3SM -SN OVC006 M05/M06 A2966 RMK AO2 P0002
KFOZ 111045Z AUTO 18005KT 10SM OVC008 M06/M07 A2966 RMK AO2 P0001
KFOZ 110945Z AUTO 18004KT 5SM -SN OVC010 M06/M07 A2968 RMK AO2 P0002
KFOZ 110845Z AUTO 16005KT 10SM -SN BKN016 BKN025 OVC032 M06/M08 A2970 RMK
KFOZ 110745Z AUTO 17005KT 2SM -SN BKN002 BKN007 OVC017 M07/M08 A2974 RMK
KFOZ 110645Z AUTO 17005KT 1 1/4SM -SN OVC002 M07/M09 A2977 RMK AO2
KFOZ 110535Z AUTO 15004KT 1 3/4SM -SN BKN004 BKN009 OVC013 M08/M09 A2982 RMK AO2
KFOZ 110515Z AUTO 14005KT 5SM -SN SCT013 BKN029 OVC050 M08/M10 A2983 RMK AO2
KFOZ 110455Z AUTO 00000KT 10SM SCT048 BKN055 OVC075 M08/M10 A2985 RMK AO2
KFOZ 110435Z AUTO 15003KT 10SM OVC080 M08/M11 A2986 RMK AO2
KFOZ 110415Z AUTO 00000KT 10SM OVC080 M09/M11 A2986 RMK AO2
KFOZ 110355Z AUTO 00000KT 10SM OVC080 M09/M11 A2988 RMK AO2
KFOZ 110335Z AUTO 00000KT 10SM SCT080 M10/M12 A2989 RMK AO2
KFOZ 110315Z AUTO 00000KT 10SM CLR M11/M12 A2990 RMK AO2
KFOZ 110255Z AUTO 00000KT 10SM CLR M11/M13 A2991 RMK AO2
KFOZ 110235Z AUTO 00000KT 10SM CLR M12/M13 A2991 RMK AO2
KFOZ 110215Z AUTO 00000KT 10SM CLR M12/M14 A2992 RMK AO2
KFOZ 110155Z AUTO 00000KT 10SM CLR M13/M14 A2994 RMK AO2
KFOZ 110135Z AUTO 00000KT 10SM CLR M12/M13 A2994 RMK AO2
KFOZ 110115Z AUTO 00000KT 10SM CLR M12/M13 A2994 RMK AO2
KFOZ 110055Z AUTO 00000KT 10SM SCT017 M11/M12 A2995 RMK AO2
KFOZ 110035Z AUTO 00000KT 10SM SCT017 M10/M12 A2995 RMK AO2
KFOZ 110015Z AUTO 00000KT 10SM SCT019 M09/M12 A2996 RMK AO2
KFOZ 102355Z AUTO 00000KT 10SM -SN OVC019 M08/M11 A2997 RMK AO2
KFOZ 102335Z AUTO 00000KT 10SM OVC019 M07/M11 A2999 RMK AO2
KFOZ 102315Z AUTO 00000KT 10SM OVC019 M07/M11 A3000 RMK AO2
KFOZ 102255Z AUTO 00000KT 10SM OVC019 M07/M11 A2999 RMK AO2
KFOZ 102235Z AUTO 00000KT 10SM OVC019 M07/M11 A3000 RMK AO2
KFOZ 102215Z AUTO 00000KT 10SM OVC019 M07/M11 A2999 RMK AO2
KFOZ 102155Z AUTO 34003KT 10SM OVC019 M07/M11 A3000 RMK AO2
KFOZ 102135Z AUTO 00000KT 10SM OVC019 M06/M11 A3000 RMK AO2
KFOZ 102115Z AUTO 36003KT 10SM OVC019 M06/M11 A2999 RMK AO2
KFOZ 102055Z AUTO 36004KT 10SM OVC019 M06/M11 A2999 RMK AO2 TSNO
KFOZ 102035Z AUTO 30003KT 10SM BKN019 M06/M11 A2999 RMK AO2
KFOZ 102015Z AUTO 35003KT 10SM BKN017 M06/M11 A2998 RMK AO2
KFOZ 101955Z AUTO 36003KT 10SM OVC017 M06/M10 A2998 RMK AO2 TSNO
KFOZ 101935Z AUTO 34004KT 10SM OVC017 M06/M10 A2998 RMK AO2 TSNO
KFOZ 101915Z AUTO 00000KT 10SM OVC017 M07/M10 A2998 RMK AO2 TSNO
KFOZ 101855Z AUTO 36003KT 10SM -SN OVC017 M07/M11 A2998 RMK AO2
KFOZ 101835Z AUTO 00000KT 10SM -SN OVC017 M07/M11 A2998 RMK AO2
KFOZ 101815Z AUTO 00000KT 7SM -SN OVC013 M07/M10 A2998 RMK AO2
KFOZ 101755Z AUTO 00000KT 7SM -SN OVC011 M07/M10 A2998 RMK AO2
KFOZ 101735Z AUTO 36003KT 4SM -SN OVC011 M07/M10 A2997 RMK AO2
KFOZ 101715Z AUTO 00000KT 4SM -SN OVC011 M07/M10 A2997 RMK AO2
KFOZ 101655Z AUTO 36003KT 4SM -SN OVC009 M07/M09 A2998 RMK AO2
KFOZ 101635Z AUTO 35004KT 10SM OVC009 M08/M10 A2998 RMK AO2
KFOZ 101615Z AUTO 36006KT 10SM OVC009 M08/M09 A2999 RMK AO2
KFOZ 101555Z AUTO 34004KT 10SM OVC009 M08/M09 A2998 RMK AO2
KFOZ 101535Z AUTO 36006KT 10SM OVC009 M08/M10 A2997 RMK AO2
KFOZ 101515Z AUTO 34005KT 10SM OVC009 M08/M10 A2996 RMK AO2
KFOZ 101455Z AUTO 00000KT 10SM OVC009 M08/M10 A2994 RMK AO2
KFOZ 101435Z AUTO 34005KT 10SM OVC009 M08/M09 A2994 RMK AO2
KFOZ 101415Z AUTO 00000KT 10SM OVC011 M08/M09 A2993 RMK AO2
KFOZ 101355Z AUTO 33004KT 10SM OVC011 M08/M10 A2993 RMK AO2
KFOZ 101335Z AUTO 00000KT 10SM OVC009 M08/M10 A2991 RMK AO2
KFOZ 101315Z AUTO 00000KT 10SM OVC009 M08/M09 A2990 RMK AO2
KFOZ 101255Z AUTO 33003KT 10SM BKN011 OVC017 M08/M09 A2990 RMK AO2 TSNO
KFOZ 101235Z AUTO 00000KT 10SM BKN011 OVC017 M08/M09 A2989 RMK AO2
KFOZ 101215Z AUTO 36003KT 10SM BKN011 OVC017 M07/M09 A2989 RMK AO2
KFOZ 101155Z AUTO 36005KT 10SM OVC017 M07/M09 A2988 RMK AO2
KFOZ 101135Z AUTO 36004KT 10SM SCT011 OVC017 M07/M09 A2987 RMK AO2
KFOZ 101115Z AUTO 35003KT 10SM BKN011 OVC017 M07/M09 A2987 RMK AO2
KFOZ 101055Z AUTO 36003KT 10SM BKN011 OVC017 M07/M09 A2986 RMK AO2
KFOZ 101035Z AUTO 35004KT 10SM BKN011 OVC017 M07/M09 A2986 RMK AO2
KFOZ 101015Z AUTO 35004KT 10SM OVC013 M07/M09 A2985 RMK AO2
KFOZ 100955Z AUTO 33003KT 10SM OVC013 M07/M09 A2985 RMK AO2
KFOZ 100935Z AUTO 36005KT 10SM OVC017 M06/M09 A2984 RMK AO2
KFOZ 100915Z AUTO 36004KT 10SM OVC017 M06/M09 A2982 RMK AO2
KFOZ 100855Z AUTO 35005KT 10SM OVC017 M06/M09 A2981 RMK AO2
KFOZ 100835Z AUTO 34003KT 10SM OVC017 M06/M09 A2980 RMK AO2
KFOZ 100815Z AUTO 34003KT 10SM BKN015 OVC020 M06/M09 A2979 RMK AO2
KFOZ 100755Z AUTO 00000KT 10SM OVC015 M06/M09 A2978 RMK AO2
KFOZ 100735Z AUTO 00000KT 10SM OVC017 M06/M09 A2977 RMK AO2
KFOZ 100715Z AUTO 00000KT 10SM OVC021 M06/M09 A2977 RMK AO2
KFOZ 100655Z AUTO 00000KT 10SM OVC021 M06/M09 A2977 RMK AO2
KFOZ 100635Z AUTO 00000KT 10SM OVC023 M06/M09 A2976 RMK AO2
KFOZ 100615Z AUTO 00000KT 10SM OVC023 M06/M09 A2975 RMK AO2
KFOZ 100555Z AUTO 00000KT 10SM OVC023 M06/M09 A2975 RMK AO2
KFOZ 100535Z AUTO 00000KT 10SM OVC025 M06/M09 A2974 RMK AO2
KFOZ 100515Z AUTO 19004KT 10SM OVC023 M06/M09 A2974 RMK AO2
KFOZ 100455Z AUTO 00000KT 10SM OVC022 M07/M10 A2973 RMK AO2
KFOZ 100435Z AUTO 21003KT 10SM OVC022 M07/M10 A2974 RMK AO2
KFOZ 100415Z AUTO 00000KT 10SM SCT018 OVC024 M07/M10 A2974 RMK AO2
KFOZ 100355Z AUTO 20003KT 10SM BKN020 OVC026 M07/M11 A2974 RMK AO2
KFOZ 100335Z AUTO 19004KT 10SM SCT019 OVC025 M07/M11 A2975 RMK AO2
KFOZ 100315Z AUTO 19008KT 10SM BKN021 OVC027 M07/M11 A2976 RMK AO2